sensor_id;sensor_type;location;lat;lon;timestamp;temperature;humidity
52181;DHT22;38158;53.338;6.514;2023-03-01T00:01:29;1.60;99.90
52181;DHT22;38158;53.338;6.514;2023-03-01T00:03:56;1.60;99.90
52181;DHT22;38158;53.338;6.514;2023-03-01T00:06:22;1.50;99.90
52181;DHT22;38158;53.338;6.514;2023-03-01T00:08:48;1.50;99.90
52181;DHT22;38158;53.338;6.514;2023-03-01T00:11:16;1.50;99.90
52181;DHT22;38158;53.338;6.514;2023-03-01T00:13:44;1.40;99.90
52181;DHT22;38158;53.338;6.514;2023-03-01T00:16:12;1.40;99.90
52181;DHT22;38158;53.338;6.514;2023-03-01T00:18:38;1.40;99.90
52181;DHT22;38158;53.338;6.514;2023-03-01T00:21:04;1.70;99.90
52181;DHT22;38158;53.338;6.514;2023-03-01T00:23:31;1.30;99.90
52181;DHT22;38158;53.338;6.514;2023-03-01T00:25:58;1.60;99.90
52181;DHT22;38158;53.338;6.514;2023-03-01T00:28:24;1.30;99.90
52181;DHT22;38158;53.338;6.514;2023-03-01T00:30:50;1.30;99.90
52181;DHT22;38158;53.338;6.514;2023-03-01T00:33:16;1.50;99.90
52181;DHT22;38158;53.338;6.514;2023-03-01T00:35:41;2.00;99.90
52181;DHT22;38158;53.338;6.514;2023-03-01T00:38:07;1.20;99.90
52181;DHT22;38158;53.338;6.514;2023-03-01T00:40:34;1.20;99.90
52181;DHT22;38158;53.338;6.514;2023-03-01T00:43:01;1.20;99.90
52181;DHT22;38158;53.338;6.514;2023-03-01T00:45:27;1.20;99.90
52181;DHT22;38158;53.338;6.514;2023-03-01T00:47:53;1.10;99.90
52181;DHT22;38158;53.338;6.514;2023-03-01T00:50:19;1.10;99.90
52181;DHT22;38158;53.338;6.514;2023-03-01T00:52:45;1.10;99.90
52181;DHT22;38158;53.338;6.514;2023-03-01T00:55:12;1.40;99.90
52181;DHT22;38158;53.338;6.514;2023-03-01T00:57:38;1.00;99.90
52181;DHT22;38158;53.338;6.514;2023-03-01T01:00:05;1.00;99.90
52181;DHT22;38158;53.338;6.514;2023-03-01T01:02:33;0.90;99.90
52181;DHT22;38158;53.338;6.514;2023-03-01T01:04:59;0.90;99.90
52181;DHT22;38158;53.338;6.514;2023-03-01T01:07:25;0.80;99.90
52181;DHT22;38158;53.338;6.514;2023-03-01T01:09:51;0.80;99.90
52181;DHT22;38158;53.338;6.514;2023-03-01T01:12:16;1.80;99.90
52181;DHT22;38158;53.338;6.514;2023-03-01T01:14:42;0.70;99.90
52181;DHT22;38158;53.338;6.514;2023-03-01T01:17:09;0.70;99.90
52181;DHT22;38158;53.338;6.514;2023-03-01T01:19:35;0.70;99.90
52181;DHT22;38158;53.338;6.514;2023-03-01T01:22:00;1.50;99.90
52181;DHT22;38158;53.338;6.514;2023-03-01T01:24:26;1.50;99.90
52181;DHT22;38158;53.338;6.514;2023-03-01T01:26:52;0.60;99.90
52181;DHT22;38158;53.338;6.514;2023-03-01T01:29:18;0.60;99.90
52181;DHT22;38158;53.338;6.514;2023-03-01T01:31:44;1.00;99.90
52181;DHT22;38158;53.338;6.514;2023-03-01T01:34:17;0.50;99.90
52181;DHT22;38158;53.338;6.514;2023-03-01T01:36:46;0.50;99.90
52181;DHT22;38158;53.338;6.514;2023-03-01T01:39:12;0.80;99.90
52181;DHT22;38158;53.338;6.514;2023-03-01T01:41:40;0.60;99.90
52181;DHT22;38158;53.338;6.514;2023-03-01T01:44:22;0.40;99.90
52181;DHT22;38158;53.338;6.514;2023-03-01T01:47:14;0.30;99.90
52181;DHT22;38158;53.338;6.514;2023-03-01T01:49:47;0.30;99.90
52181;DHT22;38158;53.338;6.514;2023-03-01T01:52:25;0.20;99.90
52181;DHT22;38158;53.338;6.514;2023-03-01T01:55:25;0.10;99.90
52181;DHT22;38158;53.338;6.514;2023-03-01T01:57:56;0.10;99.90
52181;DHT22;38158;53.338;6.514;2023-03-01T02:00:28;1.50;99.90
52181;DHT22;38158;53.338;6.514;2023-03-01T02:03:04;0.10;99.90
52181;DHT22;38158;53.338;6.514;2023-03-01T02:08:06;0.10;99.90
52181;DHT22;38158;53.338;6.514;2023-03-01T02:10:33;0.00;99.90
52181;DHT22;38158;53.338;6.514;2023-03-01T02:13:00;0.10;99.90
52181;DHT22;38158;53.338;6.514;2023-03-01T02:15:27;1.50;99.90
52181;DHT22;38158;53.338;6.514;2023-03-01T02:17:56;0.10;99.90
52181;DHT22;38158;53.338;6.514;2023-03-01T02:20:40;0.60;99.90
52181;DHT22;38158;53.338;6.514;2023-03-01T02:23:11;0.00;99.90
52181;DHT22;38158;53.338;6.514;2023-03-01T02:25:47;0.60;99.90
52181;DHT22;38158;53.338;6.514;2023-03-01T02:30:43;0.10;99.90
52181;DHT22;38158;53.338;6.514;2023-03-01T02:33:29;0.70;99.90
52181;DHT22;38158;53.338;6.514;2023-03-01T02:36:20;0.00;99.90
52181;DHT22;38158;53.338;6.514;2023-03-01T02:38:48;1.00;99.90
52181;DHT22;38158;53.338;6.514;2023-03-01T02:41:16;-0.10;99.90
52181;DHT22;38158;53.338;6.514;2023-03-01T02:43:43;1.00;99.90
52181;DHT22;38158;53.338;6.514;2023-03-01T02:46:16;-0.10;99.90
52181;DHT22;38158;53.338;6.514;2023-03-01T02:48:47;0.10;99.90
52181;DHT22;38158;53.338;6.514;2023-03-01T02:56:24;-0.20;99.90
52181;DHT22;38158;53.338;6.514;2023-03-01T02:58:50;-0.20;99.90
52181;DHT22;38158;53.338;6.514;2023-03-01T03:01:20;-0.30;99.90
52181;DHT22;38158;53.338;6.514;2023-03-01T03:03:46;0.90;99.90
52181;DHT22;38158;53.338;6.514;2023-03-01T03:06:12;0.60;99.90
52181;DHT22;38158;53.338;6.514;2023-03-01T03:08:38;-0.30;99.90
52181;DHT22;38158;53.338;6.514;2023-03-01T03:11:04;-0.30;99.90
52181;DHT22;38158;53.338;6.514;2023-03-01T03:13:30;-0.20;99.90
52181;DHT22;38158;53.338;6.514;2023-03-01T03:15:56;0.40;99.90
52181;DHT22;38158;53.338;6.514;2023-03-01T03:18:23;0.30;99.90
52181;DHT22;38158;53.338;6.514;2023-03-01T03:20:52;-0.80;99.90
52181;DHT22;38158;53.338;6.514;2023-03-01T03:23:20;-0.80;99.90
52181;DHT22;38158;53.338;6.514;2023-03-01T03:25:49;-0.80;99.90
52181;DHT22;38158;53.338;6.514;2023-03-01T03:28:15;-0.80;99.90
52181;DHT22;38158;53.338;6.514;2023-03-01T03:30:41;-0.80;99.90
52181;DHT22;38158;53.338;6.514;2023-03-01T03:33:09;-0.80;99.90
52181;DHT22;38158;53.338;6.514;2023-03-01T03:35:41;-0.60;99.90
52181;DHT22;38158;53.338;6.514;2023-03-01T03:38:09;-0.60;99.90
52181;DHT22;38158;53.338;6.514;2023-03-01T03:43:10;-0.50;99.90
52181;DHT22;38158;53.338;6.514;2023-03-01T03:45:36;-0.40;99.90
52181;DHT22;38158;53.338;6.514;2023-03-01T03:48:04;0.40;99.90
52181;DHT22;38158;53.338;6.514;2023-03-01T03:50:30;-0.40;99.90
52181;DHT22;38158;53.338;6.514;2023-03-01T03:52:56;-0.40;99.90
52181;DHT22;38158;53.338;6.514;2023-03-01T03:55:22;1.10;99.90
52181;DHT22;38158;53.338;6.514;2023-03-01T03:57:48;-0.60;99.90
52181;DHT22;38158;53.338;6.514;2023-03-01T04:00:21;-0.50;99.90
52181;DHT22;38158;53.338;6.514;2023-03-01T04:02:50;-0.60;99.90
52181;DHT22;38158;53.338;6.514;2023-03-01T04:05:17;-0.60;99.90
52181;DHT22;38158;53.338;6.514;2023-03-01T04:07:44;-0.70;99.90
52181;DHT22;38158;53.338;6.514;2023-03-01T04:10:16;-0.80;99.90
52181;DHT22;38158;53.338;6.514;2023-03-01T04:12:42;-0.80;99.90
52181;DHT22;38158;53.338;6.514;2023-03-01T04:15:09;-0.80;99.90
52181;DHT22;38158;53.338;6.514;2023-03-01T04:17:46;-0.70;99.90
52181;DHT22;38158;53.338;6.514;2023-03-01T04:20:15;-0.70;99.90
52181;DHT22;38158;53.338;6.514;2023-03-01T04:22:43;-0.40;99.90
52181;DHT22;38158;53.338;6.514;2023-03-01T04:25:12;0.50;99.90
52181;DHT22;38158;53.338;6.514;2023-03-01T04:27:40;-0.60;99.90
52181;DHT22;38158;53.338;6.514;2023-03-01T04:30:06;-0.60;99.90
52181;DHT22;38158;53.338;6.514;2023-03-01T04:32:32;-0.60;99.90
52181;DHT22;38158;53.338;6.514;2023-03-01T04:34:58;-0.40;99.90
52181;DHT22;38158;53.338;6.514;2023-03-01T04:37:24;-0.50;99.90
52181;DHT22;38158;53.338;6.514;2023-03-01T04:39:50;-0.60;99.90
52181;DHT22;38158;53.338;6.514;2023-03-01T04:42:16;-0.40;99.90
52181;DHT22;38158;53.338;6.514;2023-03-01T04:44:43;-0.60;99.90
52181;DHT22;38158;53.338;6.514;2023-03-01T04:47:08;0.20;99.90
52181;DHT22;38158;53.338;6.514;2023-03-01T04:49:34;-0.60;99.90
52181;DHT22;38158;53.338;6.514;2023-03-01T04:52:00;-0.60;99.90
52181;DHT22;38158;53.338;6.514;2023-03-01T04:54:33;-0.60;99.90
52181;DHT22;38158;53.338;6.514;2023-03-01T04:57:00;-0.60;99.90
52181;DHT22;38158;53.338;6.514;2023-03-01T04:59:26;-0.60;99.90
52181;DHT22;38158;53.338;6.514;2023-03-01T05:01:53;-0.60;99.90
52181;DHT22;38158;53.338;6.514;2023-03-01T05:04:21;-0.20;99.90
52181;DHT22;38158;53.338;6.514;2023-03-01T05:06:47;-0.60;99.90
52181;DHT22;38158;53.338;6.514;2023-03-01T05:09:13;-0.50;99.90
52181;DHT22;38158;53.338;6.514;2023-03-01T05:11:38;-0.50;99.90
52181;DHT22;38158;53.338;6.514;2023-03-01T05:14:05;-0.50;99.90
52181;DHT22;38158;53.338;6.514;2023-03-01T05:16:32;-0.50;99.90
52181;DHT22;38158;53.338;6.514;2023-03-01T05:18:59;0.40;99.90
52181;DHT22;38158;53.338;6.514;2023-03-01T05:21:25;-0.70;99.90
52181;DHT22;38158;53.338;6.514;2023-03-01T05:23:51;-0.70;99.90
52181;DHT22;38158;53.338;6.514;2023-03-01T05:26:18;-0.60;99.90
52181;DHT22;38158;53.338;6.514;2023-03-01T05:28:44;-0.60;99.90
52181;DHT22;38158;53.338;6.514;2023-03-01T05:31:10;-0.60;99.90
52181;DHT22;38158;53.338;6.514;2023-03-01T05:33:40;0.30;99.90
52181;DHT22;38158;53.338;6.514;2023-03-01T05:36:07;0.50;99.90
52181;DHT22;38158;53.338;6.514;2023-03-01T05:38:34;-0.60;99.90
52181;DHT22;38158;53.338;6.514;2023-03-01T05:40:59;-0.60;99.90
52181;DHT22;38158;53.338;6.514;2023-03-01T05:43:25;-0.60;99.90
52181;DHT22;38158;53.338;6.514;2023-03-01T05:45:51;-0.60;99.90
52181;DHT22;38158;53.338;6.514;2023-03-01T05:48:17;-0.60;99.90
52181;DHT22;38158;53.338;6.514;2023-03-01T05:50:45;-0.60;99.90
52181;DHT22;38158;53.338;6.514;2023-03-01T05:53:13;-0.60;99.90
52181;DHT22;38158;53.338;6.514;2023-03-01T05:55:40;-0.60;99.90
52181;DHT22;38158;53.338;6.514;2023-03-01T05:58:10;-0.60;99.90
52181;DHT22;38158;53.338;6.514;2023-03-01T06:00:36;-0.60;99.90
52181;DHT22;38158;53.338;6.514;2023-03-01T06:03:02;0.40;99.90
52181;DHT22;38158;53.338;6.514;2023-03-01T06:05:28;-0.60;99.90
52181;DHT22;38158;53.338;6.514;2023-03-01T06:07:54;-1.00;99.90
52181;DHT22;38158;53.338;6.514;2023-03-01T06:10:22;-1.10;99.90
52181;DHT22;38158;53.338;6.514;2023-03-01T06:12:48;-1.10;99.90
52181;DHT22;38158;53.338;6.514;2023-03-01T06:15:15;-1.20;99.90
52181;DHT22;38158;53.338;6.514;2023-03-01T06:17:42;-0.70;99.90
52181;DHT22;38158;53.338;6.514;2023-03-01T06:20:15;-0.20;99.90
52181;DHT22;38158;53.338;6.514;2023-03-01T06:22:41;-1.30;99.90
52181;DHT22;38158;53.338;6.514;2023-03-01T06:25:08;-1.30;99.90
52181;DHT22;38158;53.338;6.514;2023-03-01T06:27:34;-1.30;99.90
52181;DHT22;38158;53.338;6.514;2023-03-01T06:30:00;-1.40;99.90
52181;DHT22;38158;53.338;6.514;2023-03-01T06:32:25;-1.30;99.90
52181;DHT22;38158;53.338;6.514;2023-03-01T06:34:51;-1.30;99.90
52181;DHT22;38158;53.338;6.514;2023-03-01T06:37:17;-0.20;99.90
52181;DHT22;38158;53.338;6.514;2023-03-01T06:39:42;-1.30;99.90
52181;DHT22;38158;53.338;6.514;2023-03-01T06:42:09;-0.40;99.90
52181;DHT22;38158;53.338;6.514;2023-03-01T06:44:37;-1.20;99.90
52181;DHT22;38158;53.338;6.514;2023-03-01T06:47:04;-1.20;99.90
52181;DHT22;38158;53.338;6.514;2023-03-01T06:49:30;-1.30;99.90
52181;DHT22;38158;53.338;6.514;2023-03-01T06:51:56;-1.20;99.90
52181;DHT22;38158;53.338;6.514;2023-03-01T06:54:22;-0.60;99.90
52181;DHT22;38158;53.338;6.514;2023-03-01T06:56:48;-1.20;99.90
52181;DHT22;38158;53.338;6.514;2023-03-01T06:59:15;-1.20;99.90
52181;DHT22;38158;53.338;6.514;2023-03-01T07:01:41;-0.70;99.90
52181;DHT22;38158;53.338;6.514;2023-03-01T07:04:07;-1.20;99.90
52181;DHT22;38158;53.338;6.514;2023-03-01T07:06:32;-1.10;99.90
52181;DHT22;38158;53.338;6.514;2023-03-01T07:08:58;-0.20;99.90
52181;DHT22;38158;53.338;6.514;2023-03-01T07:11:24;-1.00;99.90
52181;DHT22;38158;53.338;6.514;2023-03-01T07:13:50;-1.00;99.90
52181;DHT22;38158;53.338;6.514;2023-03-01T07:16:15;-1.00;99.90
52181;DHT22;38158;53.338;6.514;2023-03-01T07:18:41;-0.90;99.90
52181;DHT22;38158;53.338;6.514;2023-03-01T07:21:08;-0.90;99.90
52181;DHT22;38158;53.338;6.514;2023-03-01T07:23:34;-0.80;99.90
52181;DHT22;38158;53.338;6.514;2023-03-01T07:26:00;-0.70;99.90
52181;DHT22;38158;53.338;6.514;2023-03-01T07:28:26;0.40;99.90
52181;DHT22;38158;53.338;6.514;2023-03-01T07:30:53;-0.60;99.90
52181;DHT22;38158;53.338;6.514;2023-03-01T07:33:19;-0.60;99.90
52181;DHT22;38158;53.338;6.514;2023-03-01T07:35:44;1.00;99.90
52181;DHT22;38158;53.338;6.514;2023-03-01T07:38:10;1.40;99.90
52181;DHT22;38158;53.338;6.514;2023-03-01T07:40:36;-0.60;99.90
52181;DHT22;38158;53.338;6.514;2023-03-01T07:43:01;-0.30;99.90
52181;DHT22;38158;53.338;6.514;2023-03-01T07:45:28;-0.50;99.90
52181;DHT22;38158;53.338;6.514;2023-03-01T07:47:54;-0.50;99.90
52181;DHT22;38158;53.338;6.514;2023-03-01T07:50:21;-0.40;99.90
52181;DHT22;38158;53.338;6.514;2023-03-01T07:52:48;-0.40;99.90
52181;DHT22;38158;53.338;6.514;2023-03-01T07:55:14;0.00;99.90
52181;DHT22;38158;53.338;6.514;2023-03-01T07:57:40;-0.30;99.90
52181;DHT22;38158;53.338;6.514;2023-03-01T08:00:07;-0.30;99.90
52181;DHT22;38158;53.338;6.514;2023-03-01T08:02:33;-0.30;99.90
52181;DHT22;38158;53.338;6.514;2023-03-01T08:04:59;-0.30;99.90
52181;DHT22;38158;53.338;6.514;2023-03-01T08:07:25;-0.20;99.90
52181;DHT22;38158;53.338;6.514;2023-03-01T08:09:50;-0.20;99.90
52181;DHT22;38158;53.338;6.514;2023-03-01T08:12:16;0.10;99.90
52181;DHT22;38158;53.338;6.514;2023-03-01T08:14:42;0.00;99.90
52181;DHT22;38158;53.338;6.514;2023-03-01T08:17:08;1.00;99.90
52181;DHT22;38158;53.338;6.514;2023-03-01T08:19:34;1.00;99.90
52181;DHT22;38158;53.338;6.514;2023-03-01T08:22:02;0.50;99.90
52181;DHT22;38158;53.338;6.514;2023-03-01T08:24:28;0.60;99.90
52181;DHT22;38158;53.338;6.514;2023-03-01T08:26:54;0.70;99.90
52181;DHT22;38158;53.338;6.514;2023-03-01T08:29:20;0.80;99.90
52181;DHT22;38158;53.338;6.514;2023-03-01T08:31:47;0.90;99.90
52181;DHT22;38158;53.338;6.514;2023-03-01T08:34:15;1.10;99.90
52181;DHT22;38158;53.338;6.514;2023-03-01T08:36:42;1.20;99.90
52181;DHT22;38158;53.338;6.514;2023-03-01T08:39:10;1.30;99.90
52181;DHT22;38158;53.338;6.514;2023-03-01T08:41:36;1.50;99.90
52181;DHT22;38158;53.338;6.514;2023-03-01T08:44:02;1.50;99.90
52181;DHT22;38158;53.338;6.514;2023-03-01T08:46:30;1.70;99.90
52181;DHT22;38158;53.338;6.514;2023-03-01T08:48:56;2.40;99.90
52181;DHT22;38158;53.338;6.514;2023-03-01T08:51:23;2.20;99.90
52181;DHT22;38158;53.338;6.514;2023-03-01T08:53:49;2.00;99.90
52181;DHT22;38158;53.338;6.514;2023-03-01T08:56:16;2.20;99.90
52181;DHT22;38158;53.338;6.514;2023-03-01T08:58:48;2.30;99.90
52181;DHT22;38158;53.338;6.514;2023-03-01T09:01:16;2.40;99.90
52181;DHT22;38158;53.338;6.514;2023-03-01T09:03:44;2.80;99.90
52181;DHT22;38158;53.338;6.514;2023-03-01T09:06:11;2.50;99.90
52181;DHT22;38158;53.338;6.514;2023-03-01T09:08:39;2.60;99.90
52181;DHT22;38158;53.338;6.514;2023-03-01T09:11:06;2.80;99.90
52181;DHT22;38158;53.338;6.514;2023-03-01T09:13:33;2.80;99.90
52181;DHT22;38158;53.338;6.514;2023-03-01T09:16:02;2.80;99.90
52181;DHT22;38158;53.338;6.514;2023-03-01T09:18:28;3.00;99.90
52181;DHT22;38158;53.338;6.514;2023-03-01T09:21:08;3.00;99.90
52181;DHT22;38158;53.338;6.514;2023-03-01T09:23:42;3.20;99.90
52181;DHT22;38158;53.338;6.514;2023-03-01T09:26:13;3.40;99.90
52181;DHT22;38158;53.338;6.514;2023-03-01T09:28:42;3.50;99.90
52181;DHT22;38158;53.338;6.514;2023-03-01T09:31:08;3.60;99.90
52181;DHT22;38158;53.338;6.514;2023-03-01T09:33:34;3.60;99.90
52181;DHT22;38158;53.338;6.514;2023-03-01T09:36:02;3.70;99.90
52181;DHT22;38158;53.338;6.514;2023-03-01T09:38:29;3.80;99.90
52181;DHT22;38158;53.338;6.514;2023-03-01T09:40:54;3.90;99.90
52181;DHT22;38158;53.338;6.514;2023-03-01T09:45:49;4.10;99.90
52181;DHT22;38158;53.338;6.514;2023-03-01T09:48:19;4.20;99.90
52181;DHT22;38158;53.338;6.514;2023-03-01T09:50:47;4.40;99.90
52181;DHT22;38158;53.338;6.514;2023-03-01T09:53:16;4.60;99.90
52181;DHT22;38158;53.338;6.514;2023-03-01T10:01:05;5.40;99.90
52181;DHT22;38158;53.338;6.514;2023-03-01T10:03:46;5.20;99.90
52181;DHT22;38158;53.338;6.514;2023-03-01T10:06:21;5.20;99.90
52181;DHT22;38158;53.338;6.514;2023-03-01T10:11:26;5.50;99.90
52181;DHT22;38158;53.338;6.514;2023-03-01T10:14:06;5.50;99.90
52181;DHT22;38158;53.338;6.514;2023-03-01T10:19:05;5.70;99.90
52181;DHT22;38158;53.338;6.514;2023-03-01T10:21:36;5.70;99.90
52181;DHT22;38158;53.338;6.514;2023-03-01T10:24:13;5.80;99.90
52181;DHT22;38158;53.338;6.514;2023-03-01T10:26:58;5.90;99.90
52181;DHT22;38158;53.338;6.514;2023-03-01T10:29:34;5.90;99.90
52181;DHT22;38158;53.338;6.514;2023-03-01T10:32:03;6.00;99.90
52181;DHT22;38158;53.338;6.514;2023-03-01T10:34:34;6.10;99.90
52181;DHT22;38158;53.338;6.514;2023-03-01T10:37:20;6.20;99.90
52181;DHT22;38158;53.338;6.514;2023-03-01T10:44:53;6.40;99.90
52181;DHT22;38158;53.338;6.514;2023-03-01T10:47:20;6.50;99.90
52181;DHT22;38158;53.338;6.514;2023-03-01T10:49:53;6.60;99.90
52181;DHT22;38158;53.338;6.514;2023-03-01T10:52:22;6.70;99.90
52181;DHT22;38158;53.338;6.514;2023-03-01T10:55:01;6.70;99.90
52181;DHT22;38158;53.338;6.514;2023-03-01T10:57:33;6.80;99.90
52181;DHT22;38158;53.338;6.514;2023-03-01T11:00:19;6.80;99.90
52181;DHT22;38158;53.338;6.514;2023-03-01T11:03:11;6.90;99.90
52181;DHT22;38158;53.338;6.514;2023-03-01T11:05:35;6.90;99.90
52181;DHT22;38158;53.338;6.514;2023-03-01T11:08:02;6.90;99.90
52181;DHT22;38158;53.338;6.514;2023-03-01T11:13:15;7.00;99.90
52181;DHT22;38158;53.338;6.514;2023-03-01T11:15:42;7.10;99.90
52181;DHT22;38158;53.338;6.514;2023-03-01T11:18:22;7.10;99.90
52181;DHT22;38158;53.338;6.514;2023-03-01T11:20:51;7.10;99.90
52181;DHT22;38158;53.338;6.514;2023-03-01T11:23:18;7.10;99.90
52181;DHT22;38158;53.338;6.514;2023-03-01T11:25:54;7.20;99.90
52181;DHT22;38158;53.338;6.514;2023-03-01T11:28:22;7.20;99.90
52181;DHT22;38158;53.338;6.514;2023-03-01T11:30:53;7.30;99.90
52181;DHT22;38158;53.338;6.514;2023-03-01T11:36:29;7.30;99.90
52181;DHT22;38158;53.338;6.514;2023-03-01T11:38:56;7.30;99.90
52181;DHT22;38158;53.338;6.514;2023-03-01T11:41:30;7.40;99.90
52181;DHT22;38158;53.338;6.514;2023-03-01T11:44:18;7.50;99.90
52181;DHT22;38158;53.338;6.514;2023-03-01T11:46:56;7.50;99.90
52181;DHT22;38158;53.338;6.514;2023-03-01T11:49:50;7.40;99.90
52181;DHT22;38158;53.338;6.514;2023-03-01T12:01:02;7.60;99.90
52181;DHT22;38158;53.338;6.514;2023-03-01T12:15:28;7.90;99.90
52181;DHT22;38158;53.338;6.514;2023-03-01T12:28:49;7.90;99.90
52181;DHT22;38158;53.338;6.514;2023-03-01T12:44:57;8.10;99.90
52181;DHT22;38158;53.338;6.514;2023-03-01T12:50:40;8.20;99.90
52181;DHT22;38158;53.338;6.514;2023-03-01T12:53:23;8.10;99.90
52181;DHT22;38158;53.338;6.514;2023-03-01T12:55:50;8.10;99.90
52181;DHT22;38158;53.338;6.514;2023-03-01T12:58:25;8.20;99.90
52181;DHT22;38158;53.338;6.514;2023-03-01T13:01:19;8.30;99.90
52181;DHT22;38158;53.338;6.514;2023-03-01T13:17:51;8.40;99.90
52181;DHT22;38158;53.338;6.514;2023-03-01T13:20:21;8.40;99.90
52181;DHT22;38158;53.338;6.514;2023-03-01T13:23:01;8.50;99.90
52181;DHT22;38158;53.338;6.514;2023-03-01T13:25:27;8.50;99.90
52181;DHT22;38158;53.338;6.514;2023-03-01T13:30:57;8.60;99.90
52181;DHT22;38158;53.338;6.514;2023-03-01T13:35:49;8.70;99.90
52181;DHT22;38158;53.338;6.514;2023-03-01T13:57:44;8.50;99.90
52181;DHT22;38158;53.338;6.514;2023-03-01T14:00:32;8.50;99.90
52181;DHT22;38158;53.338;6.514;2023-03-01T14:05:35;8.30;99.90
52181;DHT22;38158;53.338;6.514;2023-03-01T14:08:05;8.30;99.90
52181;DHT22;38158;53.338;6.514;2023-03-01T14:10:58;8.30;99.90
52181;DHT22;38158;53.338;6.514;2023-03-01T14:32:10;8.50;99.90
52181;DHT22;38158;53.338;6.514;2023-03-01T14:34:43;8.50;99.90
52181;DHT22;38158;53.338;6.514;2023-03-01T14:37:31;8.40;99.90
52181;DHT22;38158;53.338;6.514;2023-03-01T14:39:59;8.10;99.90
52181;DHT22;38158;53.338;6.514;2023-03-01T14:42:28;8.40;99.90
52181;DHT22;38158;53.338;6.514;2023-03-01T14:44:56;8.40;99.90
52181;DHT22;38158;53.338;6.514;2023-03-01T14:47:31;8.40;99.90
52181;DHT22;38158;53.338;6.514;2023-03-01T14:50:09;8.50;99.90
52181;DHT22;38158;53.338;6.514;2023-03-01T14:52:44;8.40;99.90
52181;DHT22;38158;53.338;6.514;2023-03-01T14:55:17;8.40;99.90
52181;DHT22;38158;53.338;6.514;2023-03-01T14:57:45;8.50;99.90
52181;DHT22;38158;53.338;6.514;2023-03-01T15:02:43;8.50;99.90
52181;DHT22;38158;53.338;6.514;2023-03-01T15:05:13;8.50;99.90
52181;DHT22;38158;53.338;6.514;2023-03-01T15:07:42;8.50;99.90
52181;DHT22;38158;53.338;6.514;2023-03-01T15:10:40;8.40;99.90
52181;DHT22;38158;53.338;6.514;2023-03-01T15:13:22;8.20;99.90
52181;DHT22;38158;53.338;6.514;2023-03-01T15:15:49;8.00;99.90
52181;DHT22;38158;53.338;6.514;2023-03-01T15:18:22;7.80;99.90
52181;DHT22;38158;53.338;6.514;2023-03-01T15:20:49;7.80;99.90
52181;DHT22;38158;53.338;6.514;2023-03-01T15:23:34;7.80;99.90
52181;DHT22;38158;53.338;6.514;2023-03-01T15:26:01;7.70;99.90
52181;DHT22;38158;53.338;6.514;2023-03-01T15:28:29;7.60;99.90
52181;DHT22;38158;53.338;6.514;2023-03-01T15:33:41;7.50;99.90
52181;DHT22;38158;53.338;6.514;2023-03-01T15:38:57;7.30;99.90
52181;DHT22;38158;53.338;6.514;2023-03-01T15:41:24;7.30;99.90
52181;DHT22;38158;53.338;6.514;2023-03-01T15:43:51;7.20;99.90
52181;DHT22;38158;53.338;6.514;2023-03-01T15:46:25;7.10;99.90
52181;DHT22;38158;53.338;6.514;2023-03-01T15:48:54;7.10;99.90
52181;DHT22;38158;53.338;6.514;2023-03-01T15:51:33;7.00;99.90
52181;DHT22;38158;53.338;6.514;2023-03-01T15:54:03;6.90;99.90
52181;DHT22;38158;53.338;6.514;2023-03-01T15:56:30;6.90;99.90
52181;DHT22;38158;53.338;6.514;2023-03-01T15:59:02;6.80;99.90
52181;DHT22;38158;53.338;6.514;2023-03-01T16:01:29;6.80;99.90
52181;DHT22;38158;53.338;6.514;2023-03-01T16:03:55;6.80;99.90
52181;DHT22;38158;53.338;6.514;2023-03-01T16:06:21;6.80;99.90
52181;DHT22;38158;53.338;6.514;2023-03-01T16:08:47;6.70;99.90
52181;DHT22;38158;53.338;6.514;2023-03-01T16:11:18;6.60;99.90
52181;DHT22;38158;53.338;6.514;2023-03-01T16:13:44;6.50;99.90
52181;DHT22;38158;53.338;6.514;2023-03-01T16:16:11;6.40;99.90
52181;DHT22;38158;53.338;6.514;2023-03-01T16:18:47;6.40;99.90
52181;DHT22;38158;53.338;6.514;2023-03-01T16:21:24;6.30;99.90
52181;DHT22;38158;53.338;6.514;2023-03-01T16:23:50;6.20;99.90
52181;DHT22;38158;53.338;6.514;2023-03-01T16:26:17;6.10;99.90
52181;DHT22;38158;53.338;6.514;2023-03-01T16:28:44;6.10;99.90
52181;DHT22;38158;53.338;6.514;2023-03-01T16:31:10;6.00;99.90
52181;DHT22;38158;53.338;6.514;2023-03-01T16:33:36;6.00;99.90
52181;DHT22;38158;53.338;6.514;2023-03-01T16:36:11;5.90;99.90
52181;DHT22;38158;53.338;6.514;2023-03-01T16:38:37;5.80;99.90
52181;DHT22;38158;53.338;6.514;2023-03-01T16:41:03;5.70;99.90
52181;DHT22;38158;53.338;6.514;2023-03-01T16:43:29;5.60;99.90
52181;DHT22;38158;53.338;6.514;2023-03-01T16:45:55;5.50;99.90
52181;DHT22;38158;53.338;6.514;2023-03-01T16:48:21;5.40;99.90
52181;DHT22;38158;53.338;6.514;2023-03-01T16:50:56;5.30;99.90
52181;DHT22;38158;53.338;6.514;2023-03-01T16:53:22;5.20;99.90
52181;DHT22;38158;53.338;6.514;2023-03-01T16:55:53;5.10;99.90
52181;DHT22;38158;53.338;6.514;2023-03-01T16:58:19;5.10;99.90
52181;DHT22;38158;53.338;6.514;2023-03-01T17:00:45;5.00;99.90
52181;DHT22;38158;53.338;6.514;2023-03-01T17:03:10;4.90;99.90
52181;DHT22;38158;53.338;6.514;2023-03-01T17:05:40;4.80;99.90
52181;DHT22;38158;53.338;6.514;2023-03-01T17:08:06;4.80;99.90
52181;DHT22;38158;53.338;6.514;2023-03-01T17:10:33;4.70;99.90
52181;DHT22;38158;53.338;6.514;2023-03-01T17:12:58;4.70;99.90
52181;DHT22;38158;53.338;6.514;2023-03-01T17:15:24;4.60;99.90
52181;DHT22;38158;53.338;6.514;2023-03-01T17:17:50;4.50;99.90
52181;DHT22;38158;53.338;6.514;2023-03-01T17:20:16;4.40;99.90
52181;DHT22;38158;53.338;6.514;2023-03-01T17:22:42;4.40;99.90
52181;DHT22;38158;53.338;6.514;2023-03-01T17:25:09;4.30;99.90
52181;DHT22;38158;53.338;6.514;2023-03-01T17:27:36;4.20;99.90
52181;DHT22;38158;53.338;6.514;2023-03-01T17:30:02;4.20;99.90
52181;DHT22;38158;53.338;6.514;2023-03-01T17:32:28;4.10;99.90
52181;DHT22;38158;53.338;6.514;2023-03-01T17:34:54;4.00;99.90
52181;DHT22;38158;53.338;6.514;2023-03-01T17:37:19;4.00;99.90
52181;DHT22;38158;53.338;6.514;2023-03-01T17:39:45;4.00;99.90
52181;DHT22;38158;53.338;6.514;2023-03-01T17:42:11;3.90;99.90
52181;DHT22;38158;53.338;6.514;2023-03-01T17:44:36;3.90;99.90
52181;DHT22;38158;53.338;6.514;2023-03-01T17:47:03;3.80;99.90
52181;DHT22;38158;53.338;6.514;2023-03-01T17:49:29;3.80;99.90
52181;DHT22;38158;53.338;6.514;2023-03-01T17:51:55;3.80;99.90
52181;DHT22;38158;53.338;6.514;2023-03-01T17:54:21;3.70;99.90
52181;DHT22;38158;53.338;6.514;2023-03-01T17:56:47;3.70;99.90
52181;DHT22;38158;53.338;6.514;2023-03-01T17:59:13;4.80;99.90
52181;DHT22;38158;53.338;6.514;2023-03-01T18:01:40;3.80;99.90
52181;DHT22;38158;53.338;6.514;2023-03-01T18:04:07;3.60;99.90
52181;DHT22;38158;53.338;6.514;2023-03-01T18:06:34;3.90;99.90
52181;DHT22;38158;53.338;6.514;2023-03-01T18:09:00;3.60;99.90
52181;DHT22;38158;53.338;6.514;2023-03-01T18:11:25;3.60;99.90
52181;DHT22;38158;53.338;6.514;2023-03-01T18:13:53;3.50;99.90
52181;DHT22;38158;53.338;6.514;2023-03-01T18:16:20;3.50;99.90
52181;DHT22;38158;53.338;6.514;2023-03-01T18:18:46;3.50;99.90
52181;DHT22;38158;53.338;6.514;2023-03-01T18:21:13;3.50;99.90
52181;DHT22;38158;53.338;6.514;2023-03-01T18:23:39;3.50;99.90
52181;DHT22;38158;53.338;6.514;2023-03-01T18:26:10;3.50;99.90